Time;durP1;ratioP1;P1;durP2;ratioP2;P2;SDS_P1;SDS_P2;PMS_P1;PMS_P2;Temp;Humidity;BMP_temperature;BMP_pressure;BME280_temperature;BME280_humidity;BME280_pressure;Samples;Min_cycle;Max_cycle;Signal;HPM_P1;HPM_P2
2022/05/08 00:02:14;;;;;;;;;;;14.10;1.00;;;;;;5084049;28;19912;-77
2022/05/08 00:04:56;;;;;;;;;;;14.10;1.00;;;;;;5088220;28;19915;-77
2022/05/08 00:07:22;;;;;;;;;;;14.00;1.00;;;;;;5088486;28;19912;-77
2022/05/08 00:09:57;;;;;;;;;;;14.10;1.00;;;;;;5081861;28;19958;-77
2022/05/08 00:12:23;;;;;;;;;;;14.10;1.00;;;;;;5084236;28;20005;-77
2022/05/08 00:14:56;;;;;;;;;;;14.10;1.00;;;;;;5076894;28;19908;-77
2022/05/08 00:17:22;;;;;;;;;;;14.00;1.00;;;;;;5079043;28;19909;-78
2022/05/08 00:19:50;;;;;;;;;;;14.00;1.00;;;;;;5074679;28;20014;-77
2022/05/08 00:22:50;;;;;;;;;;;14.00;1.00;;;;;;5074507;28;19909;-76
2022/05/08 00:25:27;;;;;;;;;;;14.00;1.00;;;;;;5060503;28;19908;-76
2022/05/08 00:27:53;;;;;;;;;;;14.00;1.00;;;;;;5095125;28;20548;-77
2022/05/08 00:30:26;;;;;;;;;;;14.00;1.00;;;;;;5080904;28;19908;-77
2022/05/08 00:32:52;;;;;;;;;;;14.00;1.00;;;;;;5081975;28;19948;-77
2022/05/08 00:35:17;;;;;;;;;;;14.00;1.00;;;;;;5074057;28;20002;-77
2022/05/08 00:37:43;;;;;;;;;;;13.90;1.00;;;;;;5074282;28;20278;-77
2022/05/08 00:40:14;;;;;;;;;;;14.00;1.00;;;;;;5087094;28;19928;-77
2022/05/08 00:42:50;;;;;;;;;;;14.00;1.00;;;;;;5087433;28;19908;-84
2022/05/08 00:45:26;;;;;;;;;;;13.90;1.00;;;;;;5050998;28;19913;-84
2022/05/08 00:47:54;;;;;;;;;;;14.00;1.00;;;;;;5080715;28;19908;-84
2022/05/08 00:50:20;;;;;;;;;;;13.90;1.00;;;;;;5084963;28;19908;-84
2022/05/08 00:53:02;;;;;;;;;;;14.00;1.00;;;;;;5087745;28;19947;-84
2022/05/08 00:55:50;;;;;;;;;;;14.00;1.00;;;;;;5085431;28;20033;-84
2022/05/08 00:58:44;;;;;;;;;;;14.00;1.00;;;;;;5094532;28;19962;-84
2022/05/08 01:01:14;;;;;;;;;;;13.90;1.00;;;;;;5084446;28;19908;-84
2022/05/08 01:03:44;;;;;;;;;;;14.00;1.00;;;;;;5063630;28;19909;-84
2022/05/08 01:06:15;;;;;;;;;;;13.90;1.00;;;;;;5093743;28;20007;-84
2022/05/08 01:08:45;;;;;;;;;;;14.00;1.00;;;;;;5070630;28;19941;-84
2022/05/08 01:11:26;;;;;;;;;;;13.90;1.00;;;;;;5068262;28;19919;-84
2022/05/08 01:14:08;;;;;;;;;;;13.90;1.00;;;;;;5078908;28;19927;-76
2022/05/08 01:16:34;;;;;;;;;;;13.90;1.00;;;;;;5074038;28;19959;-77
2022/05/08 01:19:08;;;;;;;;;;;13.80;1.00;;;;;;5073853;28;19964;-77
2022/05/08 01:21:41;;;;;;;;;;;13.80;1.00;;;;;;5073951;28;19908;-77
2022/05/08 01:24:07;;;;;;;;;;;13.80;1.00;;;;;;5084224;28;19912;-77
2022/05/08 01:26:33;;;;;;;;;;;13.80;1.00;;;;;;5098152;28;20011;-78
2022/05/08 01:29:02;;;;;;;;;;;13.80;1.00;;;;;;5084032;28;19950;-77
2022/05/08 01:31:32;;;;;;;;;;;13.80;1.00;;;;;;5091381;28;20002;-76
2022/05/08 01:34:08;;;;;;;;;;;13.70;1.00;;;;;;5093843;28;19912;-77
2022/05/08 01:36:34;;;;;;;;;;;13.70;1.00;;;;;;5083988;28;19919;-76
2022/05/08 01:38:59;;;;;;;;;;;13.70;1.00;;;;;;5088507;28;19912;-77
2022/05/08 01:41:25;;;;;;;;;;;13.60;1.00;;;;;;5090888;28;19917;-76
2022/05/08 01:44:08;;;;;;;;;;;13.60;1.00;;;;;;5087516;28;20293;-84
2022/05/08 01:46:38;;;;;;;;;;;13.60;1.00;;;;;;5078426;28;19916;-84
2022/05/08 01:49:04;;;;;;;;;;;13.60;1.00;;;;;;5090670;28;19951;-85
2022/05/08 01:52:02;;;;;;;;;;;13.60;1.00;;;;;;5084169;28;19908;-84
2022/05/08 01:54:44;;;;;;;;;;;13.60;1.00;;;;;;5069230;28;19948;-84
2022/05/08 02:00:13;;;;;;;;;;;13.50;1.00;;;;;;5076789;28;19924;-84
2022/05/08 02:02:39;;;;;;;;;;;13.50;1.00;;;;;;5081115;28;19912;-84
2022/05/08 02:05:28;;;;;;;;;;;13.50;1.00;;;;;;5076844;28;19908;-85
2022/05/08 02:08:09;;;;;;;;;;;13.50;1.00;;;;;;5039165;28;19913;-84
2022/05/08 02:10:34;;;;;;;;;;;13.40;1.00;;;;;;5068355;28;20374;-84
2022/05/08 02:13:20;;;;;;;;;;;13.40;1.00;;;;;;5068843;28;19908;-77
2022/05/08 02:15:50;;;;;;;;;;;13.40;1.00;;;;;;5077734;28;19998;-76
2022/05/08 02:18:33;;;;;;;;;;;13.40;1.00;;;;;;5076802;28;20002;-77
2022/05/08 02:21:02;;;;;;;;;;;13.30;1.00;;;;;;5073628;28;19919;-77
2022/05/08 02:23:28;;;;;;;;;;;13.40;1.00;;;;;;5091687;28;19915;-77
2022/05/08 02:25:56;;;;;;;;;;;13.40;1.00;;;;;;5077799;28;19913;-76
2022/05/08 02:28:21;;;;;;;;;;;13.30;1.00;;;;;;5078962;28;19909;-76
2022/05/08 02:30:56;;;;;;;;;;;13.30;1.00;;;;;;5088063;28;19915;-77
2022/05/08 02:33:22;;;;;;;;;;;13.20;1.00;;;;;;5090125;28;19909;-76
2022/05/08 02:35:47;;;;;;;;;;;13.20;1.00;;;;;;5075414;28;19999;-76
2022/05/08 02:38:14;;;;;;;;;;;13.30;1.00;;;;;;5089934;28;19919;-77
2022/05/08 02:40:44;;;;;;;;;;;13.20;1.00;;;;;;5068272;28;19912;-76
2022/05/08 02:43:26;;;;;;;;;;;13.20;1.00;;;;;;5083101;28;19912;-77
2022/05/08 02:46:08;;;;;;;;;;;13.20;1.00;;;;;;5083916;28;19914;-77
2022/05/08 02:48:44;;;;;;;;;;;13.20;1.00;;;;;;5063860;28;19908;-77
2022/05/08 02:51:20;;;;;;;;;;;13.10;1.00;;;;;;5078577;28;19916;-76
2022/05/08 02:53:46;;;;;;;;;;;13.10;1.00;;;;;;5064933;28;19965;-76
2022/05/08 02:59:26;;;;;;;;;;;13.10;1.00;;;;;;5082867;28;19919;-77
2022/05/08 03:01:52;;;;;;;;;;;13.10;1.00;;;;;;5078566;28;19908;-77
2022/05/08 03:04:26;;;;;;;;;;;13.00;1.00;;;;;;5078898;28;20309;-77
2022/05/08 03:06:52;;;;;;;;;;;13.00;1.00;;;;;;5076337;28;19908;-77
2022/05/08 03:09:20;;;;;;;;;;;13.00;1.00;;;;;;5071004;28;19915;-77
2022/05/08 03:11:56;;;;;;;;;;;13.00;1.00;;;;;;5066712;28;19908;-76
2022/05/08 03:14:23;;;;;;;;;;;12.90;1.00;;;;;;5095831;28;19919;-76
2022/05/08 03:16:56;;;;;;;;;;;12.90;1.00;;;;;;5082729;28;19913;-76
2022/05/08 03:19:22;;;;;;;;;;;12.90;1.00;;;;;;5088095;28;19952;-77
2022/05/08 03:22:08;;;;;;;;;;;12.90;1.00;;;;;;5089093;28;20309;-76
2022/05/08 03:24:38;;;;;;;;;;;12.80;1.00;;;;;;5075328;28;19916;-77
2022/05/08 03:27:08;;;;;;;;;;;12.90;1.00;;;;;;5070944;28;19912;-77
2022/05/08 03:29:34;;;;;;;;;;;12.90;1.00;;;;;;5087682;28;20266;-77
2022/05/08 03:32:03;;;;;;;;;;;12.80;1.00;;;;;;5093641;28;19911;-77
2022/05/08 03:34:56;;;;;;;;;;;12.90;1.00;;;;;;5065403;28;19919;-76
2022/05/08 03:37:22;;;;;;;;;;;12.80;1.00;;;;;;5073304;28;19916;-76
2022/05/08 03:39:50;;;;;;;;;;;12.80;1.00;;;;;;5082062;28;20073;-76
2022/05/08 03:42:16;;;;;;;;;;;12.80;1.00;;;;;;5086183;28;19912;-76
2022/05/08 03:44:53;;;;;;;;;;;12.90;1.00;;;;;;5078166;28;20375;-85
2022/05/08 03:47:32;;;;;;;;;;;12.80;1.00;;;;;;5065850;28;19923;-84
2022/05/08 03:50:08;;;;;;;;;;;12.80;1.00;;;;;;5057381;28;19916;-85
2022/05/08 03:52:38;;;;;;;;;;;12.80;1.00;;;;;;5088794;28;19982;-86
2022/05/08 03:55:26;;;;;;;;;;;12.90;1.00;;;;;;5082675;28;20007;-85
2022/05/08 03:58:02;;;;;;;;;;;12.90;1.00;;;;;;5077726;28;19908;-85
2022/05/08 04:00:28;;;;;;;;;;;12.90;1.00;;;;;;5074741;28;19922;-76
2022/05/08 04:02:54;;;;;;;;;;;12.90;1.00;;;;;;5088558;28;19995;-77
2022/05/08 04:05:20;;;;;;;;;;;12.90;1.00;;;;;;5074397;28;19913;-76
2022/05/08 04:07:46;;;;;;;;;;;12.90;1.00;;;;;;5088655;28;19909;-76
2022/05/08 04:10:26;;;;;;;;;;;13.00;1.00;;;;;;5085833;28;19931;-76
2022/05/08 04:12:52;;;;;;;;;;;13.00;1.00;;;;;;5060407;28;19909;-76
2022/05/08 04:18:20;;;;;;;;;;;13.00;1.00;;;;;;5094168;28;20289;-76
2022/05/08 04:20:50;;;;;;;;;;;13.00;1.00;;;;;;5081074;28;19908;-77
2022/05/08 04:29:26;;;;;;;;;;;13.00;1.00;;;;;;5069987;28;19922;-76
2022/05/08 04:32:03;;;;;;;;;;;13.10;1.00;;;;;;5080955;28;19946;-77
2022/05/08 04:34:28;;;;;;;;;;;13.10;1.00;;;;;;5082473;28;20486;-76
2022/05/08 04:36:54;;;;;;;;;;;13.10;1.00;;;;;;5069538;28;19995;-76
2022/05/08 04:39:20;;;;;;;;;;;13.20;1.00;;;;;;5087559;28;19916;-76
2022/05/08 04:42:02;;;;;;;;;;;13.20;1.00;;;;;;5080609;28;20480;-76
2022/05/08 04:44:32;;;;;;;;;;;13.20;1.00;;;;;;5079704;28;19950;-76
2022/05/08 04:47:08;;;;;;;;;;;13.30;1.00;;;;;;5083176;28;19908;-76
2022/05/08 04:49:50;;;;;;;;;;;13.30;1.00;;;;;;5080663;28;19908;-76
2022/05/08 04:52:20;;;;;;;;;;;13.40;1.00;;;;;;5081879;28;19916;-76
2022/05/08 04:54:46;;;;;;;;;;;13.40;1.00;;;;;;5069505;28;19917;-76
2022/05/08 04:57:14;;;;;;;;;;;13.40;1.00;;;;;;5069403;28;20258;-76
2022/05/08 04:59:40;;;;;;;;;;;13.50;1.00;;;;;;5089709;28;19919;-77
2022/05/08 05:02:08;;;;;;;;;;;13.50;1.00;;;;;;5089820;28;19908;-77
2022/05/08 05:04:35;;;;;;;;;;;13.50;1.00;;;;;;5084608;28;19908;-76
2022/05/08 05:07:00;;;;;;;;;;;13.60;1.00;;;;;;5086063;28;20356;-77
2022/05/08 05:09:32;;;;;;;;;;;13.60;1.00;;;;;;5077752;28;19919;-76
2022/05/08 05:12:08;;;;;;;;;;;13.60;1.00;;;;;;5060278;28;19908;-77
2022/05/08 05:14:38;;;;;;;;;;;13.70;1.00;;;;;;5058316;28;19975;-76
2022/05/08 05:17:08;;;;;;;;;;;13.70;1.00;;;;;;5072954;28;19962;-78
2022/05/08 05:19:34;;;;;;;;;;;13.80;1.00;;;;;;5080140;28;19919;-78
2022/05/08 05:21:59;;;;;;;;;;;13.90;1.00;;;;;;5079984;28;20317;-78
2022/05/08 05:24:25;;;;;;;;;;;13.90;1.00;;;;;;5084922;28;19940;-77
2022/05/08 05:26:52;;;;;;;;;;;13.90;1.00;;;;;;5091178;28;20275;-77
2022/05/08 05:29:38;;;;;;;;;;;13.90;1.00;;;;;;5086677;28;19916;-87
2022/05/08 05:32:14;;;;;;;;;;;14.00;1.00;;;;;;5083764;28;19914;-88
2022/05/08 05:37:43;;;;;;;;;;;14.10;1.00;;;;;;5085838;28;19934;-88
2022/05/08 05:40:09;;;;;;;;;;;14.20;1.00;;;;;;5061240;28;19920;-87
2022/05/08 05:42:44;;;;;;;;;;;14.30;1.00;;;;;;5090231;28;19909;-90
2022/05/08 05:45:10;;;;;;;;;;;14.30;1.00;;;;;;5072873;28;19908;-88
2022/05/08 05:56:45;;;;;;;;;;;14.60;1.00;;;;;;5084830;28;19942;-89
2022/05/08 06:02:13;;;;;;;;;;;14.70;1.00;;;;;;5083113;28;20375;-78
2022/05/08 06:04:39;;;;;;;;;;;14.70;1.00;;;;;;5083876;28;19912;-77
2022/05/08 06:07:05;;;;;;;;;;;14.80;1.00;;;;;;5092051;28;19908;-73
2022/05/08 06:09:30;;;;;;;;;;;14.90;1.00;;;;;;5080713;28;20328;-72
2022/05/08 06:11:56;;;;;;;;;;;14.90;1.00;;;;;;5076476;28;20271;-72
2022/05/08 06:14:22;;;;;;;;;;;15.00;1.00;;;;;;5076389;28;19920;-71
2022/05/08 06:16:47;;;;;;;;;;;15.10;1.00;;;;;;5076424;28;19936;-72
2022/05/08 06:19:14;;;;;;;;;;;15.20;1.00;;;;;;5076250;28;19912;-73
2022/05/08 06:21:40;;;;;;;;;;;15.20;1.00;;;;;;5089720;28;19908;-73
2022/05/08 06:24:05;;;;;;;;;;;15.30;1.00;;;;;;5075591;28;19908;-72
2022/05/08 06:26:31;;;;;;;;;;;15.40;1.00;;;;;;5071194;28;20046;-73
2022/05/08 06:28:58;;;;;;;;;;;15.40;1.00;;;;;;5083172;28;19908;-72
2022/05/08 06:31:24;;;;;;;;;;;15.50;1.00;;;;;;5082810;28;20315;-70
2022/05/08 06:33:49;;;;;;;;;;;15.60;1.00;;;;;;5080375;28;20001;-70
2022/05/08 06:36:15;;;;;;;;;;;15.70;1.00;;;;;;5057601;28;20394;-70
2022/05/08 06:38:40;;;;;;;;;;;15.70;1.00;;;;;;5068793;28;19916;-70
2022/05/08 06:41:06;;;;;;;;;;;15.80;1.00;;;;;;5095816;28;20267;-70
2022/05/08 06:43:32;;;;;;;;;;;15.90;1.00;;;;;;5079635;28;19912;-70
2022/05/08 06:45:58;;;;;;;;;;;16.00;1.00;;;;;;5080121;28;19916;-73
2022/05/08 06:48:23;;;;;;;;;;;16.10;1.00;;;;;;5081822;28;19914;-74
2022/05/08 06:50:50;;;;;;;;;;;16.20;1.00;;;;;;5084055;28;19919;-72
2022/05/08 06:53:16;;;;;;;;;;;16.20;1.00;;;;;;5075593;28;19912;-71
2022/05/08 06:55:43;;;;;;;;;;;16.30;1.00;;;;;;5088910;28;19952;-72
2022/05/08 06:58:14;;;;;;;;;;;16.50;1.00;;;;;;5081763;28;19912;-72
2022/05/08 07:03:26;;;;;;;;;;;16.60;1.00;;;;;;5074476;28;20263;-77
2022/05/08 07:05:54;;;;;;;;;;;16.70;1.00;;;;;;5069805;28;20331;-76
2022/05/08 07:08:19;;;;;;;;;;;16.80;1.00;;;;;;5066696;28;20385;-75
2022/05/08 07:10:50;;;;;;;;;;;16.80;1.00;;;;;;5079047;28;19916;-76
2022/05/08 07:13:17;;;;;;;;;;;16.90;99.90;;;;;;5085928;28;19934;-75
2022/05/08 07:15:44;;;;;;;;;;;17.00;99.90;;;;;;5078843;28;20034;-75
2022/05/08 07:18:14;;;;;;;;;;;17.10;99.90;;;;;;5082150;28;19912;-76
2022/05/08 07:20:40;;;;;;;;;;;17.20;99.90;;;;;;5061706;28;19938;-76
2022/05/08 07:23:05;;;;;;;;;;;17.30;99.90;;;;;;5072353;28;20346;-76
2022/05/08 07:25:31;;;;;;;;;;;17.30;99.90;;;;;;5076127;28;19929;-76
2022/05/08 07:28:02;;;;;;;;;;;17.40;99.90;;;;;;5082994;28;19908;-77
2022/05/08 07:30:38;;;;;;;;;;;17.50;99.90;;;;;;5081364;28;20363;-77
2022/05/08 07:33:08;;;;;;;;;;;17.70;99.90;;;;;;5072909;28;19908;-77
2022/05/08 07:38:27;;;;;;;;;;;17.80;99.90;;;;;;5082058;28;20309;-76
2022/05/08 07:41:09;;;;;;;;;;;18.00;99.90;;;;;;5091611;28;19913;-77
2022/05/08 07:43:38;;;;;;;;;;;18.00;99.90;;;;;;5087240;28;19916;-76
2022/05/08 07:49:08;;;;;;;;;;;18.20;99.90;;;;;;5082141;28;20353;-88
2022/05/08 07:51:39;;;;;;;;;;;18.40;99.90;;;;;;5066074;28;20272;-87
2022/05/08 07:57:08;;;;;;;;;;;18.60;99.90;;;;;;5080740;28;19936;-86
2022/05/08 08:00:08;;;;;;;;;;;18.70;99.90;;;;;;5075187;28;20005;-87
2022/05/08 08:02:50;;;;;;;;;;;18.70;99.90;;;;;;5075738;28;19908;-77
2022/05/08 08:05:16;;;;;;;;;;;18.80;99.90;;;;;;5088664;28;19913;-76
2022/05/08 08:07:44;;;;;;;;;;;18.90;99.90;;;;;;5084893;28;20336;-77
2022/05/08 08:10:10;;;;;;;;;;;19.00;99.90;;;;;;5090744;28;19962;-77
2022/05/08 08:12:50;;;;;;;;;;;19.00;99.90;;;;;;5084676;28;19955;-77
2022/05/08 08:15:16;;;;;;;;;;;19.00;99.90;;;;;;5056519;28;19984;-77
2022/05/08 08:21:22;;;;;;;;;;;19.30;99.90;;;;;;5095323;28;19922;-87
2022/05/08 08:26:51;;;;;;;;;;;19.50;99.90;;;;;;5084732;28;19920;-87
2022/05/08 08:29:17;;;;;;;;;;;19.60;99.90;;;;;;5094928;28;19908;-87
2022/05/08 08:31:42;;;;;;;;;;;19.60;99.90;;;;;;5092229;28;20359;-78
2022/05/08 08:34:08;;;;;;;;;;;19.70;99.90;;;;;;5083246;28;19913;-77
2022/05/08 08:36:35;;;;;;;;;;;19.70;99.90;;;;;;5062611;28;19912;-77
2022/05/08 08:39:08;;;;;;;;;;;19.80;99.90;;;;;;5085754;28;19966;-77
2022/05/08 08:41:41;;;;;;;;;;;19.80;99.90;;;;;;5080818;28;19912;-77
2022/05/08 08:49:50;;;;;;;;;;;20.10;99.90;;;;;;5074097;28;19915;-77
2022/05/08 08:52:16;;;;;;;;;;;20.20;99.90;;;;;;5085853;28;19908;-77
2022/05/08 08:54:56;;;;;;;;;;;20.20;99.90;;;;;;5090370;28;19914;-77
2022/05/08 08:57:44;;;;;;;;;;;20.30;99.90;;;;;;5093948;28;19916;-78
2022/05/08 09:00:11;;;;;;;;;;;20.40;99.90;;;;;;5083522;28;20359;-77
2022/05/08 09:06:14;;;;;;;;;;;20.60;99.90;;;;;;5094427;28;19919;-86
2022/05/08 09:11:43;;;;;;;;;;;20.80;99.90;;;;;;5065824;28;19962;-87
2022/05/08 09:14:08;;;;;;;;;;;21.00;99.90;;;;;;5060271;28;19915;-87
2022/05/08 09:22:41;;;;;;;;;;;21.30;99.90;;;;;;5069466;28;20433;-87
2022/05/08 09:25:07;;;;;;;;;;;21.30;99.90;;;;;;5072586;28;19947;-88
2022/05/08 09:27:58;;;;;;;;;;;21.30;99.90;;;;;;5067692;28;19908;-87
2022/05/08 09:33:28;;;;;;;;;;;21.50;99.90;;;;;;5087457;28;19916;-78
2022/05/08 09:35:56;;;;;;;;;;;21.80;99.90;;;;;;5083925;28;19912;-78
2022/05/08 09:38:46;;;;;;;;;;;21.80;99.90;;;;;;5080181;28;19912;-77
2022/05/08 09:41:14;;;;;;;;;;;21.90;99.90;;;;;;5066799;28;19917;-78
2022/05/08 09:43:44;;;;;;;;;;;21.90;99.90;;;;;;5085697;28;19920;-78
2022/05/08 09:46:32;;;;;;;;;;;22.00;99.90;;;;;;5090228;28;20271;-78
2022/05/08 09:48:58;;;;;;;;;;;22.10;99.90;;;;;;5079111;28;19919;-78
2022/05/08 09:51:33;;;;;;;;;;;22.10;99.90;;;;;;5092705;28;19959;-77
2022/05/08 09:57:02;;;;;;;;;;;22.50;99.90;;;;;;5067547;28;19923;-78
2022/05/08 09:59:41;;;;;;;;;;;22.60;99.90;;;;;;5090340;28;20275;-78
2022/05/08 10:02:32;;;;;;;;;;;22.60;99.90;;;;;;5077243;28;19909;-78
2022/05/08 10:05:08;;;;;;;;;;;22.70;99.90;;;;;;5075823;28;19916;-78
2022/05/08 10:07:45;;;;;;;;;;;22.90;99.90;;;;;;5083598;28;19908;-79
2022/05/08 10:15:48;;;;;;;;;;;22.60;99.90;;;;;;5088496;28;20323;-72
2022/05/08 10:18:27;;;;;;;;;;;22.80;99.90;;;;;;5076620;28;19908;-71
2022/05/08 10:21:03;;;;;;;;;;;22.90;99.90;;;;;;5066486;28;19999;-72
2022/05/08 10:23:47;;;;;;;;;;;23.00;99.90;;;;;;5081392;28;19916;-72
2022/05/08 10:26:23;;;;;;;;;;;23.10;99.90;;;;;;5087386;28;19908;-72
2022/05/08 10:29:03;;;;;;;;;;;23.20;99.90;;;;;;5088380;28;19919;-72
2022/05/08 10:31:48;;;;;;;;;;;23.30;99.90;;;;;;5080911;28;19913;-72
2022/05/08 10:34:14;;;;;;;;;;;23.30;99.90;;;;;;5058212;28;19908;-72
2022/05/08 10:37:00;;;;;;;;;;;23.40;99.90;;;;;;5078478;28;19920;-72
2022/05/08 10:39:35;;;;;;;;;;;23.50;99.90;;;;;;5063279;28;20273;-72
2022/05/08 10:42:01;;;;;;;;;;;23.60;99.90;;;;;;5087908;28;20418;-72
2022/05/08 10:44:37;;;;;;;;;;;23.60;99.90;;;;;;5071453;28;19959;-72
2022/05/08 10:47:21;;;;;;;;;;;23.70;99.90;;;;;;5086234;28;19919;-72
2022/05/08 10:49:46;;;;;;;;;;;23.80;99.90;;;;;;5094049;28;19954;-72
2022/05/08 10:52:12;;;;;;;;;;;23.80;99.90;;;;;;5084653;28;19909;-72
2022/05/08 10:54:54;;;;;;;;;;;23.80;99.90;;;;;;5074992;28;19991;-71
2022/05/08 10:57:27;;;;;;;;;;;23.90;99.90;;;;;;5082932;28;20006;-72
2022/05/08 10:59:53;;;;;;;;;;;24.00;99.90;;;;;;5068563;28;19939;-72
2022/05/08 11:02:37;;;;;;;;;;;24.10;99.90;;;;;;5078480;28;20394;-72
2022/05/08 11:05:03;;;;;;;;;;;24.20;99.90;;;;;;5090696;28;19912;-72
2022/05/08 11:07:32;;;;;;;;;;;24.30;99.90;;;;;;5094760;28;19922;-78
2022/05/08 11:09:58;;;;;;;;;;;24.20;99.90;;;;;;5063359;28;19944;-79
2022/05/08 11:12:24;;;;;;;;;;;24.30;99.90;;;;;;5086940;28;19915;-79
2022/05/08 11:14:50;;;;;;;;;;;24.30;99.90;;;;;;5088215;28;19912;-78
2022/05/08 11:17:16;;;;;;;;;;;24.30;99.90;;;;;;5084024;28;20319;-78
2022/05/08 11:19:51;;;;;;;;;;;24.20;99.90;;;;;;5080956;28;19912;-86
2022/05/08 11:22:17;;;;;;;;;;;24.20;99.90;;;;;;5067910;28;19914;-86
2022/05/08 11:25:26;;;;;;;;;;;24.30;99.90;;;;;;5066573;28;19972;-86
2022/05/08 11:28:21;;;;;;;;;;;24.10;99.90;;;;;;5089480;28;20374;-85
2022/05/08 11:30:51;;;;;;;;;;;24.20;99.90;;;;;;5088731;28;20003;-87
2022/05/08 11:36:25;;;;;;;;;;;24.30;99.90;;;;;;5081847;28;19915;-85
2022/05/08 11:39:00;;;;;;;;;;;24.40;99.90;;;;;;5082731;28;19934;-85
2022/05/08 11:41:57;;;;;;;;;;;24.30;99.90;;;;;;5064290;28;19955;-84
2022/05/08 11:44:27;;;;;;;;;;;24.40;99.90;;;;;;5085015;28;19908;-81
2022/05/08 11:47:09;;;;;;;;;;;24.50;99.90;;;;;;5077212;28;20356;-80
2022/05/08 11:49:56;;;;;;;;;;;24.60;99.90;;;;;;5075206;28;19912;-84
2022/05/08 11:52:32;;;;;;;;;;;24.70;99.90;;;;;;5083463;28;19919;-83
2022/05/08 11:55:08;;;;;;;;;;;24.80;99.90;;;;;;5086901;28;19912;-86
2022/05/08 12:03:40;;;;;;;;;;;24.90;99.90;;;;;;5076921;28;19916;-81
2022/05/08 12:06:14;;;;;;;;;;;24.80;99.90;;;;;;5085739;28;19913;-81
2022/05/08 12:08:44;;;;;;;;;;;24.80;99.90;;;;;;5069621;28;19916;-80
2022/05/08 12:11:36;;;;;;;;;;;25.00;99.90;;;;;;5067136;28;19957;-81
2022/05/08 12:14:14;;;;;;;;;;;25.10;99.90;;;;;;5069702;28;20011;-80
2022/05/08 12:17:11;;;;;;;;;;;25.00;99.90;;;;;;5081320;28;19915;-80
2022/05/08 12:19:36;;;;;;;;;;;25.00;99.90;;;;;;4979786;28;20308;-80
2022/05/08 12:22:17;;;;;;;;;;;25.10;99.90;;;;;;4979572;28;20004;-79
2022/05/08 12:24:43;;;;;;;;;;;25.20;99.90;;;;;;4979757;28;19934;-79
2022/05/08 12:27:14;;;;;;;;;;;25.30;99.90;;;;;;4984275;28;19915;-79
2022/05/08 12:29:57;;;;;;;;;;;25.40;99.90;;;;;;4976074;28;19914;-79
2022/05/08 12:32:36;;;;;;;;;;;25.60;99.90;;;;;;4976886;28;20016;-79
2022/05/08 12:35:02;;;;;;;;;;;25.60;99.90;;;;;;4971478;28;19910;-79
2022/05/08 12:37:39;;;;;;;;;;;25.80;99.90;;;;;;4973774;28;19965;-79
2022/05/08 12:40:09;;;;;;;;;;;25.80;99.90;;;;;;4983037;28;19922;-79
2022/05/08 12:43:03;;;;;;;;;;;25.80;99.90;;;;;;4984487;28;20013;-80
2022/05/08 12:45:56;;;;;;;;;;;25.90;99.90;;;;;;4970501;28;19915;-80
2022/05/08 12:48:38;;;;;;;;;;;25.80;99.90;;;;;;4982087;28;19996;-80
2022/05/08 12:51:08;;;;;;;;;;;25.80;99.90;;;;;;4960135;28;19954;-80
2022/05/08 12:53:44;;;;;;;;;;;25.90;99.90;;;;;;4957020;28;20340;-80
2022/05/08 12:56:26;;;;;;;;;;;26.00;99.90;;;;;;5046468;28;19923;-80
2022/05/08 13:01:41;;;;;;;;;;;26.00;99.90;;;;;;5066673;28;20378;-80
2022/05/08 13:04:26;;;;;;;;;;;25.80;99.90;;;;;;5073767;28;19908;-81
2022/05/08 13:06:52;;;;;;;;;;;25.70;99.90;;;;;;5084386;28;19915;-83
2022/05/08 13:09:18;;;;;;;;;;;25.80;99.90;;;;;;5058542;28;19995;-82
2022/05/08 13:11:44;;;;;;;;;;;25.80;99.90;;;;;;5073610;28;19995;-84
2022/05/08 13:14:10;;;;;;;;;;;25.80;99.90;;;;;;5087365;28;19915;-82
2022/05/08 13:16:39;;;;;;;;;;;25.80;99.90;;;;;;5080986;28;19908;-82
2022/05/08 13:19:38;;;;;;;;;;;26.00;99.90;;;;;;5062903;28;19912;-82
2022/05/08 13:22:05;;;;;;;;;;;26.10;99.90;;;;;;5085932;28;20239;-78
2022/05/08 13:24:31;;;;;;;;;;;26.30;99.90;;;;;;5091459;28;19981;-78
2022/05/08 13:26:58;;;;;;;;;;;26.50;99.90;;;;;;5059623;28;20302;-79
2022/05/08 13:29:50;;;;;;;;;;;26.70;99.90;;;;;;5091348;28;19944;-78
2022/05/08 13:32:20;;;;;;;;;;;26.70;99.90;;;;;;5084362;28;19920;-78
2022/05/08 13:35:03;;;;;;;;;;;26.70;99.90;;;;;;5087831;28;19908;-86
2022/05/08 13:37:42;;;;;;;;;;;26.80;99.90;;;;;;5085700;28;19915;-86
2022/05/08 13:40:08;;;;;;;;;;;26.90;99.90;;;;;;5065622;28;20269;-87
2022/05/08 13:51:44;;;;;;;;;;;27.00;99.90;;;;;;5097522;28;19919;-79
2022/05/08 13:54:10;;;;;;;;;;;27.20;99.90;;;;;;5085604;28;20375;-81
2022/05/08 13:56:41;;;;;;;;;;;27.20;99.90;;;;;;5073246;28;20026;-78
2022/05/08 13:59:14;;;;;;;;;;;27.40;99.90;;;;;;5084846;28;19919;-78
2022/05/08 14:01:41;;;;;;;;;;;27.30;99.90;;;;;;5093393;28;20394;-77
2022/05/08 14:04:09;;;;;;;;;;;27.10;99.90;;;;;;5089876;28;19908;-78
2022/05/08 14:06:44;;;;;;;;;;;27.20;99.90;;;;;;5077140;28;19935;-85
2022/05/08 14:09:20;;;;;;;;;;;27.30;99.90;;;;;;5074060;28;19917;-86
2022/05/08 14:15:14;;;;;;;;;;;27.90;99.90;;;;;;5072361;28;19919;-80
2022/05/08 14:17:40;;;;;;;;;;;27.80;99.90;;;;;;5078686;28;19912;-83
2022/05/08 14:20:21;;;;;;;;;;;27.70;99.90;;;;;;5081878;28;19962;-83
2022/05/08 14:22:56;;;;;;;;;;;27.60;99.90;;;;;;5063702;28;19909;-84
2022/05/08 14:25:22;;;;;;;;;;;27.50;99.90;;;;;;5071960;28;19915;-84
2022/05/08 14:36:38;;;;;;;;;;;26.90;99.90;;;;;;5081617;28;19920;-80
2022/05/08 14:39:05;;;;;;;;;;;26.70;99.90;;;;;;5090134;28;19916;-81
2022/05/08 14:41:50;;;;;;;;;;;26.50;99.90;;;;;;5070823;28;20286;-81
2022/05/08 14:44:38;;;;;;;;;;;26.40;99.90;;;;;;5063861;28;19908;-79
2022/05/08 14:47:26;;;;;;;;;;;26.30;99.90;;;;;;5090727;28;19912;-77
2022/05/08 14:49:52;;;;;;;;;;;26.10;99.90;;;;;;5077615;28;19969;-77
2022/05/08 14:52:20;;;;;;;;;;;25.90;99.90;;;;;;5095561;28;20351;-78
2022/05/08 14:54:46;;;;;;;;;;;25.70;99.90;;;;;;5085937;28;20065;-79
2022/05/08 14:57:15;;;;;;;;;;;25.60;99.90;;;;;;5077246;28;20015;-79
2022/05/08 14:59:56;;;;;;;;;;;25.60;99.90;;;;;;5091355;28;20011;-79
2022/05/08 15:02:26;;;;;;;;;;;25.40;99.90;;;;;;5079074;28;19913;-78
2022/05/08 15:04:52;;;;;;;;;;;25.30;99.90;;;;;;5078001;28;19962;-79
2022/05/08 15:07:20;;;;;;;;;;;25.20;99.90;;;;;;5077321;28;19908;-91
2022/05/08 15:10:14;;;;;;;;;;;25.00;99.90;;;;;;5077734;28;19916;-85
2022/05/08 15:13:10;;;;;;;;;;;24.90;99.90;;;;;;5085400;28;19962;-86
2022/05/08 15:18:47;;;;;;;;;;;24.90;99.90;;;;;;5075527;28;19931;-86
2022/05/08 15:24:39;;;;;;;;;;;25.00;99.90;;;;;;5075995;28;20386;-89
2022/05/08 15:27:38;;;;;;;;;;;25.10;99.90;;;;;;5076147;28;20278;-89
2022/05/08 15:30:04;;;;;;;;;;;25.10;99.90;;;;;;5075842;28;19908;-87
2022/05/08 15:32:33;;;;;;;;;;;25.00;99.90;;;;;;5075719;28;19938;-87
2022/05/08 15:34:58;;;;;;;;;;;25.20;99.90;;;;;;5058177;28;19916;-89
2022/05/08 15:37:32;;;;;;;;;;;25.20;99.90;;;;;;5087677;28;19908;-85
2022/05/08 15:40:03;;;;;;;;;;;25.30;99.90;;;;;;5095017;28;19916;-80
2022/05/08 15:42:32;;;;;;;;;;;25.30;99.90;;;;;;5080859;28;19913;-79
2022/05/08 15:45:20;;;;;;;;;;;25.30;99.90;;;;;;5091094;28;20267;-79
2022/05/08 15:50:51;;;;;;;;;;;25.40;99.90;;;;;;5084690;28;19919;-78
2022/05/08 15:53:17;;;;;;;;;;;25.40;99.90;;;;;;5076953;28;20015;-77
2022/05/08 15:55:42;;;;;;;;;;;25.20;99.90;;;;;;5076845;28;19983;-79
2022/05/08 15:58:08;;;;;;;;;;;25.20;99.90;;;;;;5094358;28;19920;-77
2022/05/08 16:00:45;;;;;;;;;;;25.10;99.90;;;;;;5077720;28;19916;-77
2022/05/08 16:03:11;;;;;;;;;;;25.10;99.90;;;;;;5075898;28;19909;-77
2022/05/08 16:05:39;;;;;;;;;;;25.30;99.90;;;;;;5074448;28;19920;-75
2022/05/08 16:08:05;;;;;;;;;;;25.90;99.90;;;;;;5071063;28;19936;-74
2022/05/08 16:10:31;;;;;;;;;;;26.50;99.90;;;;;;5074299;28;19919;-74
2022/05/08 16:27:17;;;;;;;;;;;29.60;99.90;;;;;;5067525;28;19916;-79
2022/05/08 16:29:44;;;;;;;;;;;28.90;99.90;;;;;;5064168;28;20290;-80
2022/05/08 16:32:15;;;;;;;;;;;28.40;99.90;;;;;;5063392;28;19922;-80
2022/05/08 16:34:40;;;;;;;;;;;27.90;99.90;;;;;;5072751;28;19912;-81
2022/05/08 16:37:14;;;;;;;;;;;27.40;99.90;;;;;;5094544;28;19916;-84
2022/05/08 16:39:40;;;;;;;;;;;27.00;99.90;;;;;;5084111;28;19927;-83
2022/05/08 16:42:06;;;;;;;;;;;26.60;99.90;;;;;;5080817;28;19920;-83
2022/05/08 16:44:46;;;;;;;;;;;26.20;99.90;;;;;;5080144;28;19912;-83
2022/05/08 16:47:20;;;;;;;;;;;25.80;99.90;;;;;;5064022;28;19919;-84
2022/05/08 16:49:56;;;;;;;;;;;25.40;99.90;;;;;;5093532;28;19912;-84
2022/05/08 16:52:26;;;;;;;;;;;25.10;99.90;;;;;;5094553;28;19915;-79
2022/05/08 16:54:52;;;;;;;;;;;24.70;99.90;;;;;;5092667;28;19916;-79
2022/05/08 16:57:18;;;;;;;;;;;24.50;99.90;;;;;;5077324;28;20380;-79
2022/05/08 16:59:45;;;;;;;;;;;24.20;99.90;;;;;;5078705;28;19999;-78
2022/05/08 17:02:20;;;;;;;;;;;24.00;99.90;;;;;;5073491;28;19916;-79
2022/05/08 17:04:57;;;;;;;;;;;24.00;99.90;;;;;;5079535;28;19999;-78
2022/05/08 17:07:28;;;;;;;;;;;24.10;99.90;;;;;;5077452;28;19916;-85
2022/05/08 17:10:28;;;;;;;;;;;24.10;99.90;;;;;;5052264;28;19920;-89